Portada
METAR-TAF:

METAR-TAF

Aeropuertos :

La Palma, España

Aeropuerto de La Palma

latitud: 28-37N, longitud: 017-45W, altitud: 29 m

Observación

El informe se hizo hace 35 minutos, a las 07:00 UTC
Viento 14 kt del norte
Temperatura 19°C
Humedad 73%
Presión 1020 hPa
Visibilidad 10 km o más
Escasas nubes a una altura de 4500 ft

METAR: GCLA 170700Z 01014KT 9999 FEW045 19/14 Q1020

Hora: 08:35 (07:35 UTC)

Pronóstico

El informe se hizo hace 5 horas y 35 minutos, a las 02:00 UTC
Pronóstico válido del 17 a las 03 UTC al 18 a las 03 UTC
Viento 14 kt del norte-noreste
Visibilidad 10 km o más
Nubes dispersas a una altura de 4500 ft

TAF: GCLA 170200Z 1703/1803 02014KT 9999 SCT045 TX23/1714Z TN19/1706Z

Observaciones y pronósticos meteorológicos de más de 4000 aeropuertos (mensajes METAR y TAF).

Los puntos amarillos y rojos representan las estaciones disponibles.

Ponga el ratón en el punto deseado para ver el nombre de la estación.

Haga clic para ver las observaciones y los pronósticos meteorológicos.

Para cambiar el mapa : haga clic en los botones verdes con una cruz de color negro para hacer un zoom, en el botón verde con un guión para alejar o en las flechas verdes para mapas adyacentes.


METAR-TAF: